sensor_id;sensor_type;location;lat;lon;timestamp;pressure;altitude;pressure_sealevel;temperature;humidity
2036;BME280;23642;42.658;23.350;2023-02-12T00:00:06;55805.03;;;-146.31;45.26
2036;BME280;23642;42.658;23.350;2023-02-12T00:03:58;55794.69;;;-146.31;45.16
2036;BME280;23642;42.658;23.350;2023-02-12T00:17:04;55809.16;;;-146.31;45.19
2036;BME280;23642;42.658;23.350;2023-02-12T00:20:11;55796.75;;;-146.31;45.00
2036;BME280;23642;42.658;23.350;2023-02-12T00:22:58;55811.22;;;-146.31;45.30
2036;BME280;23642;42.658;23.350;2023-02-12T00:25:54;55794.69;;;-146.31;44.77
2036;BME280;23642;42.658;23.350;2023-02-12T00:28:30;55807.09;;;-146.31;43.86
2036;BME280;23642;42.658;23.350;2023-02-12T00:31:09;55796.75;;;-146.31;44.94
2036;BME280;23642;42.658;23.350;2023-02-12T00:33:52;55815.34;;;-146.31;44.98
2036;BME280;23642;42.658;23.350;2023-02-12T00:36:37;55815.34;;;-146.31;44.46
2036;BME280;23642;42.658;23.350;2023-02-12T00:39:26;55780.25;;;-146.31;44.91
2036;BME280;23642;42.658;23.350;2023-02-12T00:42:32;55807.09;;;-146.31;44.87
2036;BME280;23642;42.658;23.350;2023-02-12T00:45:20;55827.75;;;-146.31;45.30
2036;BME280;23642;42.658;23.350;2023-02-12T00:47:51;55817.41;;;-146.31;45.65
2036;BME280;23642;42.658;23.350;2023-02-12T00:50:56;55809.16;;;-146.31;45.24
2036;BME280;23642;42.658;23.350;2023-02-12T00:53:51;55827.75;;;-146.31;45.69
2036;BME280;23642;42.658;23.350;2023-02-12T00:56:42;55823.63;;;-146.31;45.09
2036;BME280;23642;42.658;23.350;2023-02-12T00:59:35;55798.81;;;-146.31;45.21
2036;BME280;23642;42.658;23.350;2023-02-12T01:02:29;55815.34;;;-146.31;45.20
2036;BME280;23642;42.658;23.350;2023-02-12T01:11:47;55794.69;;;-146.31;44.96
2036;BME280;23642;42.658;23.350;2023-02-12T01:14:44;55798.81;;;-146.31;44.82
2036;BME280;23642;42.658;23.350;2023-02-12T01:17:30;55782.31;;;-146.31;45.06
2036;BME280;23642;42.658;23.350;2023-02-12T01:20:20;55802.97;;;-146.31;45.12
2036;BME280;23642;42.658;23.350;2023-02-12T01:23:08;55817.41;;;-146.31;45.24
2036;BME280;23642;42.658;23.350;2023-02-12T01:26:00;55811.22;;;-146.31;44.40
2036;BME280;23642;42.658;23.350;2023-02-12T01:39:03;55769.91;;;-146.31;45.28
2036;BME280;23642;42.658;23.350;2023-02-12T01:41:53;55786.44;;;-146.31;45.55
2036;BME280;23642;42.658;23.350;2023-02-12T01:44:33;55790.56;;;-146.31;46.15
2036;BME280;23642;42.658;23.350;2023-02-12T01:47:59;55809.16;;;-146.31;46.38
2036;BME280;23642;42.658;23.350;2023-02-12T01:51:05;55798.81;;;-146.31;46.69
2036;BME280;23642;42.658;23.350;2023-02-12T02:17:58;55782.31;;;-146.31;48.07
2036;BME280;23642;42.658;23.350;2023-02-12T02:27:29;55792.63;;;-146.31;49.18
2036;BME280;23642;42.658;23.350;2023-02-12T02:30:34;55794.69;;;-146.31;48.14
2036;BME280;23642;42.658;23.350;2023-02-12T02:33:43;55800.91;;;-146.31;49.34
2036;BME280;23642;42.658;23.350;2023-02-12T02:36:44;55790.56;;;-146.31;49.57
2036;BME280;23642;42.658;23.350;2023-02-12T02:42:37;55763.72;;;-146.31;49.65
2036;BME280;23642;42.658;23.350;2023-02-12T02:45:41;55747.19;;;-146.31;49.43
2036;BME280;23642;42.658;23.350;2023-02-12T02:48:40;55769.91;;;-146.31;49.41
2036;BME280;23642;42.658;23.350;2023-02-12T02:51:29;55749.25;;;-146.31;49.25
2036;BME280;23642;42.658;23.350;2023-02-12T02:54:22;55724.47;;;-146.31;49.76
2036;BME280;23642;42.658;23.350;2023-02-12T02:57:07;55745.13;;;-146.31;49.79
2036;BME280;23642;42.658;23.350;2023-02-12T02:59:48;55741.00;;;-146.31;49.75
2036;BME280;23642;42.658;23.350;2023-02-12T03:02:39;55724.47;;;-146.31;49.69
2036;BME280;23642;42.658;23.350;2023-02-12T03:05:15;55699.69;;;-146.31;49.87
2036;BME280;23642;42.658;23.350;2023-02-12T03:07:48;55701.75;;;-146.31;49.33
2036;BME280;23642;42.658;23.350;2023-02-12T03:10:29;55716.19;;;-146.31;50.23
2036;BME280;23642;42.658;23.350;2023-02-12T03:13:01;55747.19;;;-146.31;50.61
2036;BME280;23642;42.658;23.350;2023-02-12T03:15:34;55712.06;;;-146.31;49.39
2036;BME280;23642;42.658;23.350;2023-02-12T03:18:19;55697.63;;;-146.31;49.56
2036;BME280;23642;42.658;23.350;2023-02-12T03:21:04;55720.34;;;-146.31;50.18
2036;BME280;23642;42.658;23.350;2023-02-12T03:23:37;55695.53;;;-146.31;49.99
2036;BME280;23642;42.658;23.350;2023-02-12T03:26:11;55703.81;;;-146.31;49.87
2036;BME280;23642;42.658;23.350;2023-02-12T03:28:45;55699.69;;;-146.31;50.38
2036;BME280;23642;42.658;23.350;2023-02-12T03:31:19;55714.13;;;-146.31;50.07
2036;BME280;23642;42.658;23.350;2023-02-12T03:34:06;55679.03;;;-146.31;50.74
2036;BME280;23642;42.658;23.350;2023-02-12T03:36:40;55691.41;;;-146.31;51.20
2036;BME280;23642;42.658;23.350;2023-02-12T03:39:20;55703.81;;;-146.31;51.53
2036;BME280;23642;42.658;23.350;2023-02-12T03:42:02;55689.34;;;-146.31;51.24
2036;BME280;23642;42.658;23.350;2023-02-12T03:44:44;55697.63;;;-146.31;51.91
2036;BME280;23642;42.658;23.350;2023-02-12T03:47:18;55699.69;;;-146.31;51.43
2036;BME280;23642;42.658;23.350;2023-02-12T03:49:52;55681.09;;;-146.31;51.97
2036;BME280;23642;42.658;23.350;2023-02-12T03:52:19;55668.69;;;-146.31;51.86
2036;BME280;23642;42.658;23.350;2023-02-12T03:54:47;55674.88;;;-146.31;51.80
2036;BME280;23642;42.658;23.350;2023-02-12T03:57:24;55672.81;;;-146.31;52.24
2036;BME280;23642;42.658;23.350;2023-02-12T03:59:58;55683.16;;;-146.31;52.66
2036;BME280;23642;42.658;23.350;2023-02-12T04:02:29;55697.63;;;-146.31;52.69
2036;BME280;23642;42.658;23.350;2023-02-12T04:05:05;55701.75;;;-146.31;52.46
2036;BME280;23642;42.658;23.350;2023-02-12T04:07:34;55674.88;;;-146.31;52.69
2036;BME280;23642;42.658;23.350;2023-02-12T04:10:02;55679.03;;;-146.31;52.88
2036;BME280;23642;42.658;23.350;2023-02-12T04:12:34;55683.16;;;-146.31;53.21
2036;BME280;23642;42.658;23.350;2023-02-12T04:15:28;55679.03;;;-146.31;53.49
2036;BME280;23642;42.658;23.350;2023-02-12T04:18:03;55691.41;;;-146.31;53.26
2036;BME280;23642;42.658;23.350;2023-02-12T04:20:51;55683.16;;;-146.31;53.74
2036;BME280;23642;42.658;23.350;2023-02-12T04:23:35;55668.69;;;-146.31;53.80
2036;BME280;23642;42.658;23.350;2023-02-12T04:26:19;55662.50;;;-146.31;53.85
2036;BME280;23642;42.658;23.350;2023-02-12T04:28:59;55687.28;;;-146.31;53.56
2036;BME280;23642;42.658;23.350;2023-02-12T04:31:42;55668.69;;;-146.31;53.93
2036;BME280;23642;42.658;23.350;2023-02-12T04:34:14;55676.97;;;-146.31;54.11
2036;BME280;23642;42.658;23.350;2023-02-12T04:36:52;55666.63;;;-146.31;53.89
2036;BME280;23642;42.658;23.350;2023-02-12T04:39:22;55666.63;;;-146.31;53.88
2036;BME280;23642;42.658;23.350;2023-02-12T04:41:51;55674.88;;;-146.31;53.83
2036;BME280;23642;42.658;23.350;2023-02-12T04:44:27;55633.56;;;-146.31;53.80
2036;BME280;23642;42.658;23.350;2023-02-12T04:46:58;55668.69;;;-146.31;53.81
2036;BME280;23642;42.658;23.350;2023-02-12T04:49:31;55621.19;;;-146.31;54.19
2036;BME280;23642;42.658;23.350;2023-02-12T04:52:13;55660.44;;;-146.31;53.90
2036;BME280;23642;42.658;23.350;2023-02-12T04:54:44;55637.72;;;-146.31;54.18
2036;BME280;23642;42.658;23.350;2023-02-12T04:57:15;55627.38;;;-146.31;54.32
2036;BME280;23642;42.658;23.350;2023-02-12T04:59:52;55654.22;;;-146.31;53.95
2036;BME280;23642;42.658;23.350;2023-02-12T05:02:22;55602.59;;;-146.31;53.78
2036;BME280;23642;42.658;23.350;2023-02-12T05:04:49;55621.19;;;-146.31;53.99
2036;BME280;23642;42.658;23.350;2023-02-12T05:07:25;55650.09;;;-146.31;54.12
2036;BME280;23642;42.658;23.350;2023-02-12T05:09:54;55631.50;;;-146.31;54.11
2036;BME280;23642;42.658;23.350;2023-02-12T05:12:22;55621.19;;;-146.31;54.06
2036;BME280;23642;42.658;23.350;2023-02-12T05:14:58;55637.72;;;-146.31;53.78
2036;BME280;23642;42.658;23.350;2023-02-12T05:17:28;55608.78;;;-146.31;53.56
2036;BME280;23642;42.658;23.350;2023-02-12T05:19:57;55604.66;;;-146.31;52.83
2036;BME280;23642;42.658;23.350;2023-02-12T05:22:28;55612.91;;;-146.31;52.66
2036;BME280;23642;42.658;23.350;2023-02-12T05:24:59;55619.13;;;-146.31;52.74
2036;BME280;23642;42.658;23.350;2023-02-12T05:27:26;55584.00;;;-146.31;53.16
2036;BME280;23642;42.658;23.350;2023-02-12T05:29:54;55590.19;;;-146.31;54.41
2036;BME280;23642;42.658;23.350;2023-02-12T05:32:21;55548.88;;;-146.31;54.25
2036;BME280;23642;42.658;23.350;2023-02-12T05:34:54;55571.63;;;-146.31;54.65
2036;BME280;23642;42.658;23.350;2023-02-12T05:37:31;55577.81;;;-146.31;54.11
2036;BME280;23642;42.658;23.350;2023-02-12T05:40:08;55544.75;;;-146.31;55.31
2036;BME280;23642;42.658;23.350;2023-02-12T05:42:46;55555.09;;;-146.31;55.26
2036;BME280;23642;42.658;23.350;2023-02-12T05:45:26;55513.78;;;-146.31;55.57
2036;BME280;23642;42.658;23.350;2023-02-12T05:50:41;55484.88;;;-146.31;56.35
2036;BME280;23642;42.658;23.350;2023-02-12T05:53:18;55398.13;;;-146.31;57.51
2036;BME280;23642;42.658;23.350;2023-02-12T05:56:23;55327.88;;;-146.31;58.36
2036;BME280;23642;42.658;23.350;2023-02-12T05:59:03;55313.44;;;-146.31;58.30
2036;BME280;23642;42.658;23.350;2023-02-12T06:02:06;55325.81;;;-146.31;58.73
2036;BME280;23642;42.658;23.350;2023-02-12T06:04:50;55309.31;;;-146.31;58.78
2036;BME280;23642;42.658;23.350;2023-02-12T06:07:38;55323.75;;;-146.31;58.97
2036;BME280;23642;42.658;23.350;2023-02-12T06:10:22;55301.03;;;-146.31;59.31
2036;BME280;23642;42.658;23.350;2023-02-12T06:13:03;55294.84;;;-146.31;59.49
2036;BME280;23642;42.658;23.350;2023-02-12T06:15:41;55261.78;;;-146.31;60.51
2036;BME280;23642;42.658;23.350;2023-02-12T06:18:31;55208.09;;;-146.31;61.40
2036;BME280;23642;42.658;23.350;2023-02-12T06:21:09;55193.66;;;-146.31;62.21
2036;BME280;23642;42.658;23.350;2023-02-12T06:23:50;55164.72;;;-146.31;63.59
2036;BME280;23642;42.658;23.350;2023-02-12T06:26:59;55154.41;;;-146.31;63.25
2036;BME280;23642;42.658;23.350;2023-02-12T06:29:33;55121.34;;;-146.31;64.13
2036;BME280;23642;42.658;23.350;2023-02-12T06:32:05;55117.22;;;-146.31;64.68
2036;BME280;23642;42.658;23.350;2023-02-12T06:35:11;55080.06;;;-146.31;64.37
2036;BME280;23642;42.658;23.350;2023-02-12T06:37:42;55071.78;;;-146.31;65.05
2036;BME280;23642;42.658;23.350;2023-02-12T06:40:29;55024.28;;;-146.31;66.88
2036;BME280;23642;42.658;23.350;2023-02-12T06:43:03;54974.72;;;-146.31;68.73
2036;BME280;23642;42.658;23.350;2023-02-12T06:46:09;54906.56;;;-146.31;69.98
2036;BME280;23642;42.658;23.350;2023-02-12T06:48:41;54894.19;;;-146.31;70.91
2036;BME280;23642;42.658;23.350;2023-02-12T06:58:21;54786.81;;;-146.31;72.11
2036;BME280;23642;42.658;23.350;2023-02-12T07:04:52;54720.72;;;-146.31;71.38
2036;BME280;23642;42.658;23.350;2023-02-12T07:07:29;54739.31;;;-146.31;71.12
2036;BME280;23642;42.658;23.350;2023-02-12T07:10:04;54687.69;;;-146.31;71.25
2036;BME280;23642;42.658;23.350;2023-02-12T07:12:57;54683.56;;;-146.31;70.80
2036;BME280;23642;42.658;23.350;2023-02-12T07:15:46;54654.66;;;-146.31;70.83
2036;BME280;23642;42.658;23.350;2023-02-12T07:18:18;54640.19;;;-146.31;70.48
2036;BME280;23642;42.658;23.350;2023-02-12T07:21:15;54658.78;;;-146.31;69.58
2036;BME280;23642;42.658;23.350;2023-02-12T07:23:58;54621.59;;;-146.31;69.83
2036;BME280;23642;42.658;23.350;2023-02-12T07:26:39;54671.16;;;-146.31;69.92
2036;BME280;23642;42.658;23.350;2023-02-12T07:29:15;54631.94;;;-146.31;70.38
2036;BME280;23642;42.658;23.350;2023-02-12T07:31:52;54631.94;;;-146.31;70.67
2036;BME280;23642;42.658;23.350;2023-02-12T07:37:37;54576.19;;;-146.31;70.43
2036;BME280;23642;42.658;23.350;2023-02-12T07:40:14;54569.97;;;-146.31;70.71
2036;BME280;23642;42.658;23.350;2023-02-12T07:42:48;54592.69;;;-146.31;70.70
2036;BME280;23642;42.658;23.350;2023-02-12T07:46:44;54522.50;;;-146.31;70.81
2036;BME280;23642;42.658;23.350;2023-02-12T07:48:27;54528.69;;;-146.31;70.96
2036;BME280;23642;42.658;23.350;2023-02-12T07:51:19;54505.97;;;-146.31;71.88
2036;BME280;23642;42.658;23.350;2023-02-12T07:54:08;54493.59;;;-146.31;72.45
2036;BME280;23642;42.658;23.350;2023-02-12T07:56:49;54481.19;;;-146.31;72.95
2036;BME280;23642;42.658;23.350;2023-02-12T07:59:32;54435.75;;;-146.31;72.82
2036;BME280;23642;42.658;23.350;2023-02-12T08:02:27;54417.19;;;-146.31;72.53
2036;BME280;23642;42.658;23.350;2023-02-12T08:05:12;54427.50;;;-146.31;73.15
2036;BME280;23642;42.658;23.350;2023-02-12T08:08:04;54411.00;;;-146.31;73.54
2036;BME280;23642;42.658;23.350;2023-02-12T08:11:20;54351.09;;;-146.31;74.03
2036;BME280;23642;42.658;23.350;2023-02-12T08:14:09;54330.47;;;-146.31;73.80
2036;BME280;23642;42.658;23.350;2023-02-12T08:16:50;54336.66;;;-146.31;73.89
2036;BME280;23642;42.658;23.350;2023-02-12T08:19:31;54285.03;;;-146.31;74.10
2036;BME280;23642;42.658;23.350;2023-02-12T08:22:33;54324.28;;;-146.31;74.25
2036;BME280;23642;42.658;23.350;2023-02-12T08:25:24;54266.44;;;-146.31;74.65
2036;BME280;23642;42.658;23.350;2023-02-12T08:27:55;54245.81;;;-146.31;74.72
2036;BME280;23642;42.658;23.350;2023-02-12T08:31:25;54237.53;;;-146.31;74.64
2036;BME280;23642;42.658;23.350;2023-02-12T08:33:57;54229.28;;;-146.31;74.52
2036;BME280;23642;42.658;23.350;2023-02-12T08:36:54;54198.31;;;-146.31;74.05
2036;BME280;23642;42.658;23.350;2023-02-12T08:39:44;54177.66;;;-146.31;74.61
2036;BME280;23642;42.658;23.350;2023-02-12T08:42:28;54169.41;;;-146.31;74.42
2036;BME280;23642;42.658;23.350;2023-02-12T08:45:19;54152.91;;;-146.31;74.00
2036;BME280;23642;42.658;23.350;2023-02-12T08:48:16;54163.22;;;-146.31;73.72
2036;BME280;23642;42.658;23.350;2023-02-12T08:50:55;54130.19;;;-146.31;73.52
2036;BME280;23642;42.658;23.350;2023-02-12T08:53:57;54136.38;;;-146.31;73.19
2036;BME280;23642;42.658;23.350;2023-02-12T08:56:46;54146.69;;;-146.31;72.74
2036;BME280;23642;42.658;23.350;2023-02-12T08:59:27;54109.53;;;-146.31;72.94
2036;BME280;23642;42.658;23.350;2023-02-12T09:02:00;54117.78;;;-146.31;73.00
2036;BME280;23642;42.658;23.350;2023-02-12T09:04:56;54084.75;;;-146.31;72.67
2036;BME280;23642;42.658;23.350;2023-02-12T09:07:37;54093.03;;;-146.31;72.24
2036;BME280;23642;42.658;23.350;2023-02-12T09:10:15;54093.03;;;-146.31;72.47
2036;BME280;23642;42.658;23.350;2023-02-12T09:12:49;54093.03;;;-146.31;72.52
2036;BME280;23642;42.658;23.350;2023-02-12T09:15:52;54093.03;;;-146.31;72.42
2036;BME280;23642;42.658;23.350;2023-02-12T09:18:39;54072.38;;;-146.31;72.70
2036;BME280;23642;42.658;23.350;2023-02-12T09:21:23;54045.53;;;-146.31;73.02
2036;BME280;23642;42.658;23.350;2023-02-12T09:23:55;54055.84;;;-146.31;72.55
2036;BME280;23642;42.658;23.350;2023-02-12T09:26:36;54080.63;;;-146.31;73.22
2036;BME280;23642;42.658;23.350;2023-02-12T09:29:31;53991.84;;;-146.31;72.71
2036;BME280;23642;42.658;23.350;2023-02-12T09:32:05;54049.66;;;-146.31;72.99
2036;BME280;23642;42.658;23.350;2023-02-12T09:34:58;53998.06;;;-146.31;72.69
2036;BME280;23642;42.658;23.350;2023-02-12T09:38:08;53998.06;;;-146.31;72.69
2036;BME280;23642;42.658;23.350;2023-02-12T09:40:43;53998.06;;;-146.31;72.10
2036;BME280;23642;42.658;23.350;2023-02-12T09:43:47;54002.19;;;-146.31;72.77
2036;BME280;23642;42.658;23.350;2023-02-12T09:47:24;53989.78;;;-146.31;73.41
2036;BME280;23642;42.658;23.350;2023-02-12T11:01:45;54097.16;;;-146.31;65.20
2036;BME280;23642;42.658;23.350;2023-02-12T11:05:21;54039.34;;;-146.31;64.71
2036;BME280;23642;42.658;23.350;2023-02-12T11:14:26;54117.78;;;-146.31;65.18
2036;BME280;23642;42.658;23.350;2023-02-12T11:20:47;54124.00;;;-146.31;65.10
2036;BME280;23642;42.658;23.350;2023-02-12T11:23:42;54128.13;;;-146.31;64.60
2036;BME280;23642;42.658;23.350;2023-02-12T11:33:40;54064.13;;;-146.31;64.48
2036;BME280;23642;42.658;23.350;2023-02-12T11:42:49;54130.19;;;-146.31;63.07
2036;BME280;23642;42.658;23.350;2023-02-12T11:49:05;54154.97;;;-146.31;61.85
2036;BME280;23642;42.658;23.350;2023-02-12T11:51:49;54132.25;;;-146.31;60.89
2036;BME280;23642;42.658;23.350;2023-02-12T11:54:35;54078.56;;;-146.31;61.06
2036;BME280;23642;42.658;23.350;2023-02-12T11:57:37;54115.72;;;-146.31;62.39
2036;BME280;23642;42.658;23.350;2023-02-12T12:00:14;54101.28;;;-146.31;63.15
2036;BME280;23642;42.658;23.350;2023-02-12T12:02:51;54051.72;;;-146.31;63.42
2036;BME280;23642;42.658;23.350;2023-02-12T12:05:35;54128.13;;;-146.31;63.35
2036;BME280;23642;42.658;23.350;2023-02-12T12:08:20;54072.38;;;-146.31;63.09
2036;BME280;23642;42.658;23.350;2023-02-12T12:10:59;54115.72;;;-146.31;62.84
2036;BME280;23642;42.658;23.350;2023-02-12T12:14:11;54076.50;;;-146.31;61.60
2036;BME280;23642;42.658;23.350;2023-02-12T12:16:53;54140.50;;;-146.31;61.85
2036;BME280;23642;42.658;23.350;2023-02-12T12:19:42;54107.47;;;-146.31;61.68
2036;BME280;23642;42.658;23.350;2023-02-12T12:22:39;54080.63;;;-146.31;61.83
2036;BME280;23642;42.658;23.350;2023-02-12T12:26:39;54093.03;;;-146.31;61.85
2036;BME280;23642;42.658;23.350;2023-02-12T12:31:37;54115.72;;;-146.31;61.23
2036;BME280;23642;42.658;23.350;2023-02-12T12:41:34;54126.06;;;-146.31;62.70
2036;BME280;23642;42.658;23.350;2023-02-12T12:44:44;54148.78;;;-146.31;62.97
2036;BME280;23642;42.658;23.350;2023-02-12T12:50:34;54097.16;;;-146.31;62.03
2036;BME280;23642;42.658;23.350;2023-02-12T12:53:23;54105.41;;;-146.31;61.99
2036;BME280;23642;42.658;23.350;2023-02-12T12:56:20;54066.19;;;-146.31;61.69
2036;BME280;23642;42.658;23.350;2023-02-12T13:18:41;54068.25;;;-146.31;62.83
2036;BME280;23642;42.658;23.350;2023-02-12T13:21:39;54078.56;;;-146.31;63.25
2036;BME280;23642;42.658;23.350;2023-02-12T13:24:33;54064.13;;;-146.31;62.46
2036;BME280;23642;42.658;23.350;2023-02-12T13:27:57;54068.25;;;-146.31;62.89
2036;BME280;23642;42.658;23.350;2023-02-12T13:54:48;54026.94;;;-146.31;65.31
2036;BME280;23642;42.658;23.350;2023-02-12T14:07:51;54022.81;;;-146.31;65.74
2036;BME280;23642;42.658;23.350;2023-02-12T14:10:24;53998.06;;;-146.31;65.23
2036;BME280;23642;42.658;23.350;2023-02-12T14:13:43;54016.63;;;-146.31;65.73
2036;BME280;23642;42.658;23.350;2023-02-12T14:16:49;53996.00;;;-146.31;65.13
2036;BME280;23642;42.658;23.350;2023-02-12T14:19:56;54049.66;;;-146.31;66.23
2036;BME280;23642;42.658;23.350;2023-02-12T14:26:17;54008.38;;;-146.31;66.08
2036;BME280;23642;42.658;23.350;2023-02-12T14:30:20;53989.78;;;-146.31;65.84
2036;BME280;23642;42.658;23.350;2023-02-12T14:35:32;53981.53;;;-146.31;65.79
2036;BME280;23642;42.658;23.350;2023-02-12T14:42:40;54004.25;;;-146.31;66.31
2036;BME280;23642;42.658;23.350;2023-02-12T14:45:01;53969.16;;;-146.31;66.54
2036;BME280;23642;42.658;23.350;2023-02-12T14:48:03;53991.84;;;-146.31;66.30
2036;BME280;23642;42.658;23.350;2023-02-12T14:50:44;53987.72;;;-146.31;66.60
2036;BME280;23642;42.658;23.350;2023-02-12T14:53:48;53979.47;;;-146.31;67.20
2036;BME280;23642;42.658;23.350;2023-02-12T14:56:22;53993.91;;;-146.31;66.90
2036;BME280;23642;42.658;23.350;2023-02-12T14:59:17;53985.66;;;-146.31;66.80
2036;BME280;23642;42.658;23.350;2023-02-12T15:04:38;53981.53;;;-146.31;67.81
2036;BME280;23642;42.658;23.350;2023-02-12T15:07:19;54004.25;;;-146.31;67.02
2036;BME280;23642;42.658;23.350;2023-02-12T15:09:59;54016.63;;;-146.31;67.32
2036;BME280;23642;42.658;23.350;2023-02-12T15:13:17;54006.31;;;-146.31;67.94
2036;BME280;23642;42.658;23.350;2023-02-12T15:15:43;53962.94;;;-146.31;67.75
2036;BME280;23642;42.658;23.350;2023-02-12T15:18:59;53989.78;;;-146.31;67.68
2036;BME280;23642;42.658;23.350;2023-02-12T15:21:54;53981.53;;;-146.31;68.38
2036;BME280;23642;42.658;23.350;2023-02-12T15:24:32;53981.53;;;-146.31;68.27
2036;BME280;23642;42.658;23.350;2023-02-12T15:27:11;53960.88;;;-146.31;68.36
2036;BME280;23642;42.658;23.350;2023-02-12T15:29:42;53967.09;;;-146.31;68.30
2036;BME280;23642;42.658;23.350;2023-02-12T15:32:27;53948.50;;;-146.31;68.19
2036;BME280;23642;42.658;23.350;2023-02-12T15:35:51;53973.28;;;-146.31;68.81
2036;BME280;23642;42.658;23.350;2023-02-12T15:39:05;53946.44;;;-146.31;69.20
2036;BME280;23642;42.658;23.350;2023-02-12T15:42:57;53919.59;;;-146.31;69.23
2036;BME280;23642;42.658;23.350;2023-02-12T15:45:31;53946.44;;;-146.31;69.43
2036;BME280;23642;42.658;23.350;2023-02-12T15:48:19;53925.78;;;-146.31;69.78
2036;BME280;23642;42.658;23.350;2023-02-12T15:50:57;53913.41;;;-146.31;69.62
2036;BME280;23642;42.658;23.350;2023-02-12T15:53:41;53909.28;;;-146.31;70.14
2036;BME280;23642;42.658;23.350;2023-02-12T15:56:22;53888.63;;;-146.31;70.92
2036;BME280;23642;42.658;23.350;2023-02-12T15:58:59;53890.69;;;-146.31;71.63
2036;BME280;23642;42.658;23.350;2023-02-12T16:01:33;53882.44;;;-146.31;71.45
2036;BME280;23642;42.658;23.350;2023-02-12T16:04:12;53886.56;;;-146.31;71.15
2036;BME280;23642;42.658;23.350;2023-02-12T16:07:16;53874.19;;;-146.31;71.11
2036;BME280;23642;42.658;23.350;2023-02-12T16:09:51;53861.78;;;-146.31;72.05
2036;BME280;23642;42.658;23.350;2023-02-12T16:12:43;53849.41;;;-146.31;72.01
2036;BME280;23642;42.658;23.350;2023-02-12T16:15:26;53901.03;;;-146.31;72.42
2036;BME280;23642;42.658;23.350;2023-02-12T16:17:55;53857.66;;;-146.31;73.14
2036;BME280;23642;42.658;23.350;2023-02-12T16:20:31;53863.84;;;-146.31;73.48
2036;BME280;23642;42.658;23.350;2023-02-12T16:23:12;53857.66;;;-146.31;73.52
2036;BME280;23642;42.658;23.350;2023-02-12T16:25:55;53855.59;;;-146.31;73.76
2036;BME280;23642;42.658;23.350;2023-02-12T16:28:29;53828.75;;;-146.31;73.60
2036;BME280;23642;42.658;23.350;2023-02-12T16:31:10;53865.91;;;-146.31;73.98
2036;BME280;23642;42.658;23.350;2023-02-12T16:34:24;53797.78;;;-146.31;74.72
2036;BME280;23642;42.658;23.350;2023-02-12T16:47:50;53787.47;;;-146.31;76.18
2036;BME280;23642;42.658;23.350;2023-02-12T16:50:45;53804.00;;;-146.31;76.68
2036;BME280;23642;42.658;23.350;2023-02-12T16:54:03;53766.81;;;-146.31;76.64
2036;BME280;23642;42.658;23.350;2023-02-12T16:56:53;53777.16;;;-146.31;77.50
2036;BME280;23642;42.658;23.350;2023-02-12T16:59:35;53766.81;;;-146.31;79.12
2036;BME280;23642;42.658;23.350;2023-02-12T17:09:22;53704.91;;;-146.31;81.88
2036;BME280;23642;42.658;23.350;2023-02-12T17:12:06;53655.34;;;-146.31;83.43
2036;BME280;23642;42.658;23.350;2023-02-12T17:14:50;53632.66;;;-146.31;84.52
2036;BME280;23642;42.658;23.350;2023-02-12T17:17:47;53576.91;;;-146.31;85.71
2036;BME280;23642;42.658;23.350;2023-02-12T17:20:32;53535.63;;;-146.31;86.39
2036;BME280;23642;42.658;23.350;2023-02-12T17:23:20;53492.28;;;-146.31;86.87
2036;BME280;23642;42.658;23.350;2023-02-12T17:29:41;53407.63;;;-146.31;86.87
2036;BME280;23642;42.658;23.350;2023-02-12T17:35:41;53341.59;;;-146.31;85.96
2036;BME280;23642;42.658;23.350;2023-02-12T17:41:26;53316.81;;;-146.31;86.38
2036;BME280;23642;42.658;23.350;2023-02-12T17:44:20;53283.78;;;-146.31;85.68
2036;BME280;23642;42.658;23.350;2023-02-12T17:47:17;53285.84;;;-146.31;85.29
2036;BME280;23642;42.658;23.350;2023-02-12T17:50:13;53269.34;;;-146.31;85.05
2036;BME280;23642;42.658;23.350;2023-02-12T17:56:45;53279.66;;;-146.31;84.14
2036;BME280;23642;42.658;23.350;2023-02-12T17:59:17;53242.50;;;-146.31;83.74
2036;BME280;23642;42.658;23.350;2023-02-12T18:02:17;53242.50;;;-146.31;84.17
2036;BME280;23642;42.658;23.350;2023-02-12T18:05:31;53254.88;;;-146.31;84.11
2036;BME280;23642;42.658;23.350;2023-02-12T18:08:44;53259.03;;;-146.31;83.67
2036;BME280;23642;42.658;23.350;2023-02-12T18:11:53;53256.94;;;-146.31;84.15
2036;BME280;23642;42.658;23.350;2023-02-12T18:14:34;53250.75;;;-146.31;83.67
2036;BME280;23642;42.658;23.350;2023-02-12T18:20:52;53199.16;;;-146.31;83.64
2036;BME280;23642;42.658;23.350;2023-02-12T18:26:42;53246.63;;;-146.31;82.57
2036;BME280;23642;42.658;23.350;2023-02-12T18:29:33;53199.16;;;-146.31;82.54
2036;BME280;23642;42.658;23.350;2023-02-12T18:32:25;53223.94;;;-146.31;83.04
2036;BME280;23642;42.658;23.350;2023-02-12T18:35:32;53178.53;;;-146.31;82.97
2036;BME280;23642;42.658;23.350;2023-02-12T18:38:44;53223.94;;;-146.31;81.92
2036;BME280;23642;42.658;23.350;2023-02-12T18:41:35;53246.63;;;-146.31;80.17
2036;BME280;23642;42.658;23.350;2023-02-12T18:44:16;53279.66;;;-146.31;80.09
2036;BME280;23642;42.658;23.350;2023-02-12T18:47:18;53285.84;;;-146.31;80.88
2036;BME280;23642;42.658;23.350;2023-02-12T18:50:02;53254.88;;;-146.31;80.68
2036;BME280;23642;42.658;23.350;2023-02-12T18:52:45;53283.78;;;-146.31;80.58
2036;BME280;23642;42.658;23.350;2023-02-12T18:55:52;53300.31;;;-146.31;80.18
2036;BME280;23642;42.658;23.350;2023-02-12T18:59:03;53296.16;;;-146.31;80.60
2036;BME280;23642;42.658;23.350;2023-02-12T19:01:57;53285.84;;;-146.31;80.57
2036;BME280;23642;42.658;23.350;2023-02-12T19:04:57;53261.09;;;-146.31;80.52
2036;BME280;23642;42.658;23.350;2023-02-12T19:07:45;53263.16;;;-146.31;81.47
2036;BME280;23642;42.658;23.350;2023-02-12T19:10:44;53234.25;;;-146.31;81.47
2036;BME280;23642;42.658;23.350;2023-02-12T19:13:58;53230.13;;;-146.31;81.70
2036;BME280;23642;42.658;23.350;2023-02-12T19:16:52;53230.13;;;-146.31;81.72